Meteo Giornale » Osservazioni meteo Repubblica Ceca » Brno-Turany

ore: 03:30 - Osservazioni Meteo Brno-Turany
Lat. 49° 9' N Lon. 16° 42' E Alt. 241 metri s.l.m.

sereno Europe/Prague

7 °C

Sereno

Temp. 24 Ore

4 °C

15 °C

Ovest/Nord-Ovest

9.3 Km/h

Dew point 6 °C

Umidità 93 %

Visibilità  6 Km

Il sole sorge alle ore 07:25

Il sole tramonta alle ore 17:49

Data e Ora Cielo e Fenomeni T °C DP °C Um. % Pres. hPa Vis. km Vento km/h
Oggi h: 03:30 sereno Sereno 7 6 93 1018 6 O/NO 9.3
Oggi h: 03:00 sereno Sereno 7 6 93 1019 6 NO 7.4
Oggi h: 02:30 sereno Sereno 6 5 93 1019 6 N 3.7
Oggi h: 02:00 sereno Sereno 6 6 100 1019 6 N 1.8
Oggi h: 01:30 sereno Sereno 7 6 93 1019 7 N 3.7
Oggi h: 01:00 sereno Sereno 7 6 93 1019 7 N 3.7
Oggi h: 00:30 sereno Sereno 8 7 93 1019 7 N 1.8
Oggi h: 00:00 sereno Sereno 8 8 100 1019 7 N 3.7
Ieri h: 23:30 sereno Sereno 7 6 93 1019 7 N 1.8
Ieri h: 23:00 sereno Sereno 8 7 93 1020 7 N 3.7
Ieri h: 22:30 sereno Sereno 8 8 100 1020 7 N 3.7
Ieri h: 22:00 sereno Sereno 9 8 93 1020 8 N 3.7
Ieri h: 21:30 sereno Sereno 10 8 87 1020 8 N 3.7
Ieri h: 21:00 sereno Sereno 7 6 93 1019 8 E/SE 7.4
Ieri h: 20:30 sereno Sereno 10 8 87 1020 9 N 3.7
Ieri h: 20:00 sereno Sereno 11 9 87 1020 9 N 5.5
Ieri h: 19:00 sereno Sereno 11 9 87 1020 10 N 0
Ieri h: 18:30 sereno Sereno 12 9 81 1020 10 N 1.8
Ieri h: 18:00 sereno Sereno 12 9 81 1020 10 N 3.7
Ieri h: 17:00 sereno Sereno 13 9 76 1020 10 S/SO 9.3
Ieri h: 16:30 sereno Sereno 14 9 71 1020 10 SO 9.3
Ieri h: 16:00 sereno Sereno 14 9 71 1019 10 S/SO 9.3
Ieri h: 15:30 sereno Sereno 15 9 67 1020 10 SO 9.3
Ieri h: 15:00 sereno Sereno 15 9 67 1019 10 S 7.4
Ieri h: 14:30 sereno Sereno 15 9 67 1020 10 S/SO 9.3
Ieri h: 14:00 sereno Sereno 15 9 67 1020 10 S/SE 9.3
Ieri h: 13:30 sereno Sereno 15 9 67 1020 10 S 7.4
Ieri h: 13:00 sereno Sereno 14 9 71 1020 10 N 5.5
Ieri h: 12:30 sereno Sereno 14 8 67 1020 10 S/SO 7.4
Ieri h: 12:00 sereno Sereno 14 8 67 1020 10 N 5.5
Ieri h: 11:00 sereno Sereno 12 8 76 1020 10 N 3.7
Ieri h: 10:30 sereno Sereno 11 8 81 1020 10 N 3.7
Ieri h: 10:00 sereno Sereno 10 8 87 1021 10 N 0
Ieri h: 09:30 nebbia Nebbia a Strati 10 8 87 1020 10 N 3.7
Ieri h: 09:00 nebbia Nebbia a Strati 7 6 93 1020 10 N 5.5
Ieri h: 08:30 nebbia Nebbia a Strati 6 5 93 1020 10 N 5.5
Ieri h: 08:00 nebbia Nebbia a Strati 6 5 93 1019 10 N 1.8
Ieri h: 07:30 nebbia Nebbia a Strati 4 4 100 1019 10 N 3.7
Ieri h: 07:00 sereno Sereno 5 5 100 1019 10 N/NO 7.4
Ieri h: 05:30 sereno Sereno 6 5 93 1019 10 N 3.7